createdAt,value
2023-04-25T00:00:20.115Z,18.29
2023-04-25T00:02:47.541Z,18.38
2023-04-25T00:05:16.475Z,18.48
2023-04-25T00:07:43.957Z,18.28
2023-04-25T00:10:12.881Z,17.92
2023-04-25T00:12:41.527Z,18.06
2023-04-25T00:15:09.020Z,18.10
2023-04-25T00:17:36.674Z,18.00
2023-04-25T00:20:06.174Z,17.99
2023-04-25T00:22:35.467Z,17.89
2023-04-25T00:25:02.748Z,17.89
2023-04-25T00:27:29.782Z,18.15
2023-04-25T00:29:56.841Z,18.06
2023-04-25T00:32:24.188Z,18.26
2023-04-25T00:34:51.335Z,18.28
2023-04-25T00:37:19.467Z,18.21
2023-04-25T00:39:46.595Z,18.09
2023-04-25T00:42:13.848Z,18.05
2023-04-25T00:44:41.747Z,18.01
2023-04-25T00:47:09.605Z,17.89
2023-04-25T00:49:36.693Z,17.99
2023-04-25T00:52:03.941Z,18.03
2023-04-25T00:54:31.878Z,18.10
2023-04-25T00:56:59.126Z,17.97
2023-04-25T00:59:26.763Z,18.02
2023-04-25T01:01:54.349Z,17.74
2023-04-25T01:04:22.518Z,17.70
2023-04-25T01:06:50.066Z,17.89
2023-04-25T01:09:17.432Z,17.90
2023-04-25T01:11:45.505Z,17.77
2023-04-25T01:14:12.571Z,17.77
2023-04-25T01:16:39.996Z,17.62
2023-04-25T01:19:14.112Z,17.22
2023-04-25T01:21:41.573Z,17.09
2023-04-25T01:24:09.009Z,17.37
2023-04-25T01:26:37.463Z,17.50
2023-04-25T01:29:06.057Z,17.45
2023-04-25T01:31:34.188Z,17.34
2023-04-25T01:34:01.733Z,17.41
2023-04-25T01:36:30.098Z,17.62
2023-04-25T01:38:57.934Z,17.49
2023-04-25T01:41:25.049Z,17.86
2023-04-25T01:43:52.686Z,17.90
2023-04-25T01:46:20.337Z,17.97
2023-04-25T01:48:47.942Z,17.41
2023-04-25T01:51:16.305Z,17.31
2023-04-25T01:53:44.628Z,17.28
2023-04-25T01:56:12.192Z,17.57
2023-04-25T01:58:40.081Z,17.56
2023-04-25T02:01:27.548Z,17.78
2023-04-25T02:04:14.948Z,17.91
2023-04-25T02:06:42.506Z,17.95
2023-04-25T02:09:09.745Z,18.08
2023-04-25T02:11:41.855Z,18.10
2023-04-25T02:14:38.168Z,17.92
2023-04-25T02:17:11.591Z,17.75
2023-04-25T02:19:39.010Z,17.70
2023-04-25T02:22:08.424Z,17.68
2023-04-25T02:24:35.961Z,17.80
2023-04-25T02:27:03.507Z,17.89
2023-04-25T02:29:30.964Z,17.85
2023-04-25T02:31:58.279Z,18.09
2023-04-25T02:34:26.957Z,18.22
2023-04-25T02:36:53.997Z,18.12
2023-04-25T02:39:23.194Z,18.07
2023-04-25T02:41:50.352Z,18.00
2023-04-25T02:44:17.365Z,18.11
2023-04-25T02:46:45.849Z,17.80
2023-04-25T02:49:12.883Z,17.85
2023-04-25T02:51:39.985Z,18.07
2023-04-25T02:54:07.648Z,18.10
2023-04-25T02:56:38.822Z,17.98
2023-04-25T02:59:10.714Z,18.06
2023-04-25T03:01:37.756Z,18.12
2023-04-25T03:04:05.061Z,18.18
2023-04-25T03:06:32.433Z,17.87
2023-04-25T03:08:59.643Z,17.72
2023-04-25T03:11:27.020Z,17.84
2023-04-25T03:13:54.241Z,17.99
2023-04-25T03:16:22.123Z,17.72
2023-04-25T03:18:51.957Z,17.90
2023-04-25T03:21:19.231Z,17.98
2023-04-25T03:23:46.742Z,17.49
2023-04-25T03:26:13.973Z,17.26
2023-04-25T03:28:41.309Z,17.45
2023-04-25T03:31:08.572Z,17.46
2023-04-25T03:33:35.926Z,17.52
2023-04-25T03:36:03.280Z,17.71
2023-04-25T03:38:30.762Z,17.77
2023-04-25T03:40:58.525Z,17.94
2023-04-25T03:43:34.852Z,17.98
2023-04-25T03:46:06.394Z,18.03
2023-04-25T03:48:33.507Z,18.08
2023-04-25T03:51:00.841Z,18.14
2023-04-25T03:53:28.349Z,17.68
2023-04-25T03:56:13.961Z,16.72
2023-04-25T03:58:41.714Z,17.12
2023-04-25T04:01:09.093Z,17.38
2023-04-25T04:03:39.159Z,17.58
2023-04-25T04:06:07.833Z,17.59
2023-04-25T04:08:38.535Z,17.71
2023-04-25T04:11:06.117Z,17.77
2023-04-25T04:13:33.596Z,17.82
2023-04-25T04:16:01.817Z,17.67
2023-04-25T04:18:28.938Z,17.47
2023-04-25T04:20:59.173Z,17.29
2023-04-25T04:23:29.181Z,17.71
2023-04-25T04:25:57.408Z,17.68
2023-04-25T04:28:47.712Z,17.80
2023-04-25T04:31:26.787Z,17.93
2023-04-25T04:33:53.996Z,17.98
2023-04-25T04:36:22.903Z,18.09
2023-04-25T04:38:50.667Z,18.11
2023-04-25T04:41:26.588Z,17.73
2023-04-25T04:44:16.370Z,17.26
2023-04-25T04:47:07.253Z,16.86
2023-04-25T04:50:11.324Z,16.57
2023-04-25T04:52:58.424Z,16.39
2023-04-25T04:55:54.530Z,16.06
2023-04-25T04:58:57.003Z,15.60
2023-04-25T05:01:42.553Z,15.00
2023-04-25T05:04:42.259Z,14.77
2023-04-25T05:07:32.766Z,14.71
2023-04-25T05:10:19.820Z,14.74
2023-04-25T05:13:07.126Z,14.49
2023-04-25T05:15:37.016Z,14.85
2023-04-25T05:18:43.189Z,14.77
2023-04-25T05:21:30.815Z,14.74
2023-04-25T05:24:10.420Z,14.54
2023-04-25T05:26:46.227Z,14.64
2023-04-25T05:29:31.922Z,14.77
2023-04-25T05:32:31.485Z,14.84
2023-04-25T05:34:58.785Z,14.77
2023-04-25T05:37:29.083Z,14.56
2023-04-25T05:39:59.973Z,14.64
2023-04-25T05:42:36.345Z,14.45
2023-04-25T05:45:21.989Z,14.36
2023-04-25T05:48:07.995Z,14.49
2023-04-25T05:50:56.435Z,14.62
2023-04-25T05:53:43.890Z,14.59
2023-04-25T05:56:12.659Z,14.72
2023-04-25T05:58:39.900Z,14.50
2023-04-25T06:01:07.633Z,14.61
2023-04-25T06:03:34.896Z,14.74
2023-04-25T06:06:02.329Z,14.77
2023-04-25T06:08:30.555Z,14.72
2023-04-25T06:10:57.768Z,14.77
2023-04-25T06:13:24.875Z,14.91
2023-04-25T06:15:52.087Z,15.01
2023-04-25T06:18:19.295Z,15.07
2023-04-25T06:20:46.549Z,15.11
2023-04-25T06:23:13.844Z,15.05
2023-04-25T06:26:01.164Z,15.14
2023-04-25T06:28:29.268Z,15.15
2023-04-25T06:30:56.441Z,14.93
2023-04-25T06:33:25.287Z,15.04
2023-04-25T06:35:53.268Z,15.05
2023-04-25T06:38:24.679Z,15.04
2023-04-25T06:40:53.118Z,14.94
2023-04-25T06:43:20.409Z,14.98
2023-04-25T06:46:05.622Z,15.08
2023-04-25T06:48:36.534Z,15.14
2023-04-25T06:51:03.947Z,14.99
2023-04-25T06:53:31.218Z,15.23
2023-04-25T06:56:01.633Z,15.20
2023-04-25T06:58:39.691Z,15.29
2023-04-25T07:01:14.036Z,15.29
2023-04-25T07:03:41.413Z,15.27
2023-04-25T07:06:14.521Z,15.42
2023-04-25T07:08:42.194Z,15.52
2023-04-25T07:11:09.269Z,15.41
2023-04-25T07:13:37.656Z,15.43
2023-04-25T07:16:05.364Z,15.37
2023-04-25T07:18:34.452Z,15.03
2023-04-25T07:21:02.374Z,15.34
2023-04-25T07:23:30.169Z,15.28
2023-04-25T07:26:00.660Z,15.52
2023-04-25T07:28:28.419Z,15.37
2023-04-25T07:30:55.496Z,15.67
2023-04-25T07:33:22.591Z,15.71
2023-04-25T07:35:49.780Z,15.68
2023-04-25T07:38:17.413Z,15.85
2023-04-25T07:40:44.686Z,15.85
2023-04-25T07:43:17.679Z,15.54
2023-04-25T07:45:53.123Z,15.78
2023-04-25T07:48:23.027Z,15.83
2023-04-25T07:50:52.905Z,15.86
2023-04-25T07:53:20.095Z,15.83
2023-04-25T07:55:54.760Z,15.93
2023-04-25T07:58:23.108Z,16.03
2023-04-25T08:00:58.241Z,16.11
2023-04-25T08:03:42.537Z,16.23
2023-04-25T08:06:16.713Z,16.33
2023-04-25T08:09:05.126Z,16.51
2023-04-25T08:11:39.226Z,16.53
2023-04-25T08:14:08.714Z,16.56
2023-04-25T08:16:36.483Z,16.66
2023-04-25T08:19:03.881Z,16.77
2023-04-25T08:21:30.964Z,16.78
2023-04-25T08:24:01.086Z,16.95
2023-04-25T08:26:31.273Z,17.07
2023-04-25T08:28:58.844Z,17.15
2023-04-25T08:31:26.662Z,17.12
2023-04-25T08:33:58.583Z,17.05
2023-04-25T08:36:39.294Z,16.89
2023-04-25T08:39:19.890Z,16.93
2023-04-25T08:42:09.467Z,16.91
2023-04-25T08:44:37.961Z,16.90
2023-04-25T08:47:06.213Z,16.93
2023-04-25T08:49:41.089Z,17.22
2023-04-25T08:52:12.072Z,17.37
2023-04-25T08:54:45.509Z,17.47
2023-04-25T08:57:13.922Z,17.49
2023-04-25T08:59:45.527Z,17.58
2023-04-25T09:02:19.109Z,17.71
2023-04-25T09:04:50.782Z,17.87
2023-04-25T09:07:22.084Z,18.07
2023-04-25T09:09:49.426Z,18.34
2023-04-25T09:12:22.030Z,18.61
2023-04-25T09:15:03.261Z,18.47
2023-04-25T09:17:46.572Z,18.46
2023-04-25T09:20:16.313Z,18.35
2023-04-25T09:22:46.777Z,17.98
2023-04-25T09:25:15.744Z,18.49
2023-04-25T09:27:55.363Z,18.48
2023-04-25T09:30:31.920Z,18.38
2023-04-25T09:33:21.574Z,18.56
2023-04-25T09:35:56.611Z,18.55
2023-04-25T09:38:45.676Z,18.56
2023-04-25T09:41:25.650Z,18.69
2023-04-25T09:43:59.048Z,18.36
2023-04-25T09:46:37.927Z,18.22
2023-04-25T09:49:09.393Z,18.09
2023-04-25T09:52:01.344Z,18.08
2023-04-25T09:54:35.221Z,17.99
2023-04-25T09:57:26.991Z,18.00
2023-04-25T09:59:57.078Z,17.54
2023-04-25T10:02:28.478Z,17.08
2023-04-25T10:05:06.929Z,16.37
2023-04-25T10:07:39.931Z,16.10
2023-04-25T10:10:14.234Z,15.86
2023-04-25T10:12:43.994Z,15.94
2023-04-25T10:15:12.644Z,15.77
2023-04-25T10:17:40.311Z,15.90
2023-04-25T10:20:12.069Z,15.29
2023-04-25T10:22:49.309Z,15.45
2023-04-25T10:25:16.778Z,15.46
2023-04-25T10:27:44.472Z,15.25
2023-04-25T10:30:16.638Z,15.13
2023-04-25T10:32:44.877Z,15.13
2023-04-25T10:35:17.134Z,14.73
2023-04-25T10:38:15.516Z,14.80
2023-04-25T10:40:42.838Z,14.78
2023-04-25T10:43:36.672Z,14.77
2023-04-25T10:46:14.108Z,14.78
2023-04-25T10:48:48.100Z,14.77
2023-04-25T10:51:25.525Z,14.54
2023-04-25T10:54:01.828Z,14.75
2023-04-25T10:56:34.431Z,14.72
2023-04-25T10:59:18.087Z,14.77
2023-04-25T11:01:46.195Z,14.74
2023-04-25T11:04:32.821Z,14.69
2023-04-25T11:07:13.938Z,14.85
2023-04-25T11:09:42.315Z,14.75
2023-04-25T11:12:12.931Z,14.81
2023-04-25T11:17:12.915Z,14.94
2023-04-25T11:19:40.167Z,14.97
2023-04-25T11:22:07.969Z,15.02
2023-04-25T11:24:37.854Z,14.94
2023-04-25T11:27:07.169Z,15.01
2023-04-25T11:29:36.098Z,15.12
2023-04-25T11:32:03.659Z,14.92
2023-04-25T11:34:32.053Z,14.98
2023-04-25T11:37:00.937Z,15.02
2023-04-25T11:39:28.686Z,15.10
2023-04-25T11:41:56.527Z,14.94
2023-04-25T11:44:24.197Z,15.19
2023-04-25T11:46:51.396Z,15.22
2023-04-25T11:49:19.502Z,15.25
2023-04-25T11:51:49.012Z,15.42
2023-04-25T11:54:16.973Z,15.44
2023-04-25T11:56:45.501Z,15.33
2023-04-25T11:59:15.007Z,15.41
2023-04-25T12:01:50.940Z,15.36
2023-04-25T12:04:25.664Z,15.20
2023-04-25T12:06:54.777Z,15.30
2023-04-25T12:09:29.883Z,15.42
2023-04-25T12:11:59.427Z,15.33
2023-04-25T12:14:36.966Z,15.36
2023-04-25T12:17:06.478Z,15.59
2023-04-25T12:19:41.219Z,15.66
2023-04-25T12:22:23.344Z,15.66
2023-04-25T12:24:50.958Z,15.78
2023-04-25T12:27:20.006Z,15.68
2023-04-25T12:29:55.814Z,15.67
2023-04-25T12:32:23.571Z,15.87
2023-04-25T12:34:50.996Z,16.04
2023-04-25T12:37:18.046Z,16.26
2023-04-25T12:39:45.229Z,16.14
2023-04-25T12:42:15.535Z,16.36
2023-04-25T12:44:42.945Z,16.37
2023-04-25T12:47:10.697Z,16.32
2023-04-25T12:49:38.008Z,16.34
2023-04-25T12:52:05.160Z,16.28
2023-04-25T12:54:32.368Z,16.20
2023-04-25T12:57:00.265Z,16.26
2023-04-25T12:59:27.846Z,16.30
2023-04-25T13:01:54.984Z,16.45
2023-04-25T13:04:22.658Z,16.30
2023-04-25T13:06:49.988Z,16.37
2023-04-25T13:09:17.129Z,16.57
2023-04-25T13:11:44.682Z,16.59
2023-04-25T13:14:11.994Z,16.63
2023-04-25T13:16:39.112Z,16.52
2023-04-25T13:19:08.891Z,16.57
2023-04-25T13:21:36.254Z,16.69
2023-04-25T13:24:03.581Z,16.72
2023-04-25T13:26:30.769Z,16.94
2023-04-25T13:28:58.329Z,16.95
2023-04-25T13:31:25.877Z,17.27
2023-04-25T13:33:53.236Z,17.22
2023-04-25T13:36:20.777Z,17.15
2023-04-25T13:38:50.220Z,16.83
2023-04-25T13:41:19.912Z,16.92
2023-04-25T13:43:49.246Z,16.84
2023-04-25T13:46:35.455Z,17.02
2023-04-25T13:49:12.298Z,17.18
2023-04-25T13:51:40.514Z,17.26
2023-04-25T13:54:07.546Z,17.07
2023-04-25T13:56:34.751Z,16.66
2023-04-25T13:59:01.855Z,16.75
2023-04-25T14:01:29.317Z,16.75
2023-04-25T14:03:56.475Z,16.91
2023-04-25T14:06:25.086Z,16.81
2023-04-25T14:08:52.224Z,16.79
2023-04-25T14:11:19.537Z,17.19
2023-04-25T14:13:47.160Z,17.00
2023-04-25T14:16:14.410Z,17.05
2023-04-25T14:18:41.533Z,16.88
2023-04-25T14:21:09.024Z,17.05
2023-04-25T14:23:36.647Z,17.12
2023-04-25T14:26:03.782Z,16.93
2023-04-25T14:28:30.912Z,17.36
2023-04-25T14:30:58.065Z,17.08
2023-04-25T14:33:25.181Z,17.32
2023-04-25T14:35:52.335Z,17.25
2023-04-25T14:38:24.120Z,17.31
2023-04-25T14:40:51.283Z,17.08
2023-04-25T14:43:18.841Z,17.09
2023-04-25T14:45:46.395Z,17.11
2023-04-25T14:48:13.932Z,16.99
2023-04-25T14:50:41.012Z,17.08
2023-04-25T14:53:08.070Z,17.20
2023-04-25T14:55:35.085Z,17.27
2023-04-25T14:58:02.372Z,17.37
2023-04-25T15:00:29.534Z,17.30
2023-04-25T15:02:57.127Z,17.47
2023-04-25T15:05:24.563Z,17.51
2023-04-25T15:07:51.668Z,17.29
2023-04-25T15:10:19.580Z,17.15
2023-04-25T15:12:47.839Z,17.24
2023-04-25T15:15:22.732Z,17.11
2023-04-25T15:17:52.803Z,17.17
2023-04-25T15:20:19.894Z,17.08
2023-04-25T15:22:47.084Z,16.87
2023-04-25T15:25:14.231Z,16.88
2023-04-25T15:27:42.923Z,16.90
2023-04-25T15:30:12.250Z,16.87
2023-04-25T15:32:39.469Z,16.87
2023-04-25T15:35:07.887Z,16.63
2023-04-25T15:37:36.317Z,16.65
2023-04-25T15:40:15.884Z,16.77
2023-04-25T15:42:44.686Z,16.96
2023-04-25T15:45:12.357Z,16.90
2023-04-25T15:47:39.553Z,16.70
2023-04-25T15:50:08.922Z,16.75
2023-04-25T15:52:37.005Z,16.78
2023-04-25T15:55:05.544Z,16.87
2023-04-25T15:57:34.295Z,16.88
2023-04-25T16:00:05.601Z,16.88
2023-04-25T16:02:40.833Z,16.82
2023-04-25T16:05:09.373Z,16.76
2023-04-25T16:07:37.350Z,16.71
2023-04-25T16:10:04.735Z,16.88
2023-04-25T16:12:32.318Z,16.76
2023-04-25T16:14:59.493Z,16.83
2023-04-25T16:17:29.712Z,16.88
2023-04-25T16:19:57.430Z,16.95
2023-04-25T16:22:24.606Z,16.97
2023-04-25T16:24:51.790Z,16.59
2023-04-25T16:27:18.874Z,16.65
2023-04-25T16:29:46.040Z,16.48
2023-04-25T16:32:13.638Z,16.77
2023-04-25T16:34:40.824Z,16.59
2023-04-25T16:37:08.426Z,16.42
2023-04-25T16:39:35.660Z,16.54
2023-04-25T16:42:04.665Z,16.39
2023-04-25T16:44:32.075Z,16.39
2023-04-25T16:46:59.270Z,16.41
2023-04-25T16:49:26.554Z,16.27
2023-04-25T16:51:54.087Z,16.22
2023-04-25T16:54:21.398Z,16.20
2023-04-25T16:56:48.542Z,15.95
2023-04-25T16:59:15.798Z,16.05
2023-04-25T17:01:42.827Z,16.02
2023-04-25T17:04:10.166Z,16.00
2023-04-25T17:06:37.645Z,16.11
2023-04-25T17:09:06.181Z,16.01
2023-04-25T17:11:33.418Z,15.93
2023-04-25T17:14:01.086Z,16.03
2023-04-25T17:16:36.637Z,16.08
2023-04-25T17:19:07.868Z,16.05
2023-04-25T17:21:35.019Z,15.94
2023-04-25T17:24:04.885Z,16.34
2023-04-25T17:26:32.148Z,16.17
2023-04-25T17:28:59.210Z,16.11
2023-04-25T17:31:26.407Z,16.19
2023-04-25T17:33:53.616Z,16.29
2023-04-25T17:36:21.564Z,16.17
2023-04-25T17:38:48.756Z,16.21
2023-04-25T17:41:16.147Z,16.29
2023-04-25T17:43:43.266Z,16.07
2023-04-25T17:46:10.552Z,16.04
2023-04-25T17:48:37.728Z,15.93
2023-04-25T17:51:05.090Z,15.92
2023-04-25T17:53:32.231Z,15.95
2023-04-25T17:55:59.468Z,15.94
2023-04-25T17:58:27.302Z,15.88
2023-04-25T18:00:54.403Z,15.83
2023-04-25T18:03:22.107Z,15.60
2023-04-25T18:05:49.431Z,15.68
2023-04-25T18:08:16.709Z,15.54
2023-04-25T18:10:43.794Z,15.38
2023-04-25T18:13:10.766Z,15.60
2023-04-25T18:15:37.985Z,15.45
2023-04-25T18:18:14.731Z,15.50
2023-04-25T18:20:43.846Z,15.58
2023-04-25T18:23:12.383Z,15.50
2023-04-25T18:25:39.765Z,15.43
2023-04-25T18:28:08.695Z,15.35
2023-04-25T18:30:37.952Z,15.41
2023-04-25T18:33:05.553Z,15.44
2023-04-25T18:35:32.894Z,15.37
2023-04-25T18:37:59.980Z,15.21
2023-04-25T18:40:27.219Z,15.34
2023-04-25T18:42:54.312Z,15.03
2023-04-25T18:45:21.677Z,15.25
2023-04-25T18:47:48.823Z,15.21
2023-04-25T18:50:18.941Z,14.98
2023-04-25T18:53:04.799Z,14.61
2023-04-25T18:55:31.942Z,14.83
2023-04-25T18:57:59.118Z,15.07
2023-04-25T19:00:26.504Z,14.99
2023-04-25T19:02:56.108Z,14.65
2023-04-25T19:05:23.534Z,14.69
2023-04-25T19:07:51.186Z,14.69
2023-04-25T19:10:18.434Z,14.64
2023-04-25T19:12:45.517Z,14.70
2023-04-25T19:15:12.701Z,14.61
2023-04-25T19:17:39.895Z,14.22
2023-04-25T19:20:07.899Z,14.58
2023-04-25T19:22:35.590Z,14.14
2023-04-25T19:25:10.439Z,13.64
2023-04-25T19:27:39.421Z,14.31
2023-04-25T19:30:10.863Z,14.23
2023-04-25T19:32:38.825Z,14.47
2023-04-25T19:35:10.954Z,14.40
2023-04-25T19:37:39.238Z,14.34
2023-04-25T19:40:07.641Z,14.41
2023-04-25T19:42:34.772Z,14.35
2023-04-25T19:45:01.902Z,13.75
2023-04-25T19:47:29.033Z,14.07
2023-04-25T19:49:56.165Z,14.15
2023-04-25T19:52:23.348Z,14.03
2023-04-25T19:54:50.725Z,14.14
2023-04-25T19:57:17.893Z,14.13
2023-04-25T19:59:48.175Z,14.05
2023-04-25T20:02:16.191Z,14.06
2023-04-25T20:04:43.429Z,13.97
2023-04-25T20:07:10.573Z,13.84
2023-04-25T20:09:38.881Z,13.83
2023-04-25T20:12:06.149Z,13.51
2023-04-25T20:14:33.327Z,13.49
2023-04-25T20:17:00.869Z,13.13
2023-04-25T20:19:27.908Z,12.98
2023-04-25T20:21:55.146Z,13.04
2023-04-25T20:24:22.266Z,13.15
2023-04-25T20:26:49.830Z,12.98
2023-04-25T20:29:17.343Z,13.10
2023-04-25T20:31:44.694Z,13.04
2023-04-25T20:34:11.819Z,13.06
2023-04-25T20:36:38.904Z,12.87
2023-04-25T20:39:06.080Z,12.68
2023-04-25T20:41:33.334Z,12.75
2023-04-25T20:44:02.927Z,12.66
2023-04-25T20:46:30.856Z,12.69
2023-04-25T20:48:57.908Z,12.70
2023-04-25T20:51:25.188Z,12.40
2023-04-25T20:53:52.364Z,12.57
2023-04-25T20:56:20.732Z,12.57
2023-04-25T20:58:47.796Z,12.41
2023-04-25T21:01:14.977Z,12.44
2023-04-25T21:03:42.941Z,12.48
2023-04-25T21:06:10.217Z,12.56
2023-04-25T21:08:37.403Z,12.57
2023-04-25T21:11:04.526Z,12.66
2023-04-25T21:13:32.078Z,12.58
2023-04-25T21:15:59.619Z,12.56
2023-04-25T21:18:26.703Z,12.59
2023-04-25T21:20:54.099Z,12.57
2023-04-25T21:23:21.288Z,12.64
2023-04-25T21:25:49.164Z,12.65
2023-04-25T21:28:16.316Z,12.76
2023-04-25T21:30:43.544Z,12.73
2023-04-25T21:33:11.731Z,12.51
2023-04-25T21:35:40.087Z,12.64
2023-04-25T21:38:09.976Z,12.74
2023-04-25T21:40:37.894Z,12.49
2023-04-25T21:43:04.906Z,12.47
2023-04-25T21:45:32.319Z,12.41
2023-04-25T21:47:59.547Z,12.51
2023-04-25T21:50:26.763Z,12.43
2023-04-25T21:52:58.856Z,12.40
2023-04-25T21:55:27.027Z,12.38
2023-04-25T21:57:54.518Z,12.32
2023-04-25T22:00:24.799Z,12.43
2023-04-25T22:02:52.599Z,12.46
2023-04-25T22:05:23.415Z,12.54
2023-04-25T22:07:52.298Z,12.41
2023-04-25T22:10:22.673Z,12.39
2023-04-25T22:12:51.120Z,12.29
2023-04-25T22:15:24.028Z,12.14
2023-04-25T22:17:52.424Z,12.33
2023-04-25T22:20:20.398Z,12.24
2023-04-25T22:22:47.529Z,12.12
2023-04-25T22:25:15.147Z,12.12
2023-04-25T22:27:43.762Z,12.22
2023-04-25T22:30:15.269Z,12.22
2023-04-25T22:32:43.227Z,12.27
2023-04-25T22:35:10.848Z,12.38
2023-04-25T22:37:38.034Z,12.37
2023-04-25T22:40:07.217Z,12.31
2023-04-25T22:42:40.936Z,12.36
2023-04-25T22:45:09.496Z,12.12
2023-04-25T22:47:38.002Z,12.30
2023-04-25T22:50:07.996Z,12.14
2023-04-25T22:52:35.078Z,12.06
2023-04-25T22:55:03.223Z,12.28
2023-04-25T22:57:32.107Z,12.08
2023-04-25T22:59:59.238Z,12.00
2023-04-25T23:02:27.679Z,12.14
2023-04-25T23:04:55.144Z,12.12
2023-04-25T23:07:22.214Z,11.96
2023-04-25T23:09:49.470Z,11.87
2023-04-25T23:12:19.734Z,12.06
2023-04-25T23:14:53.741Z,12.22
2023-04-25T23:17:21.222Z,12.19
2023-04-25T23:19:48.496Z,11.94
2023-04-25T23:22:15.630Z,11.91
2023-04-25T23:24:42.751Z,11.68
2023-04-25T23:27:09.970Z,11.82
2023-04-25T23:29:37.254Z,11.73
2023-04-25T23:32:04.752Z,11.90
2023-04-25T23:34:32.864Z,11.91
2023-04-25T23:37:01.708Z,11.51
2023-04-25T23:39:28.982Z,12.01
2023-04-25T23:41:56.445Z,11.90
2023-04-25T23:44:23.499Z,11.73
2023-04-25T23:46:50.573Z,11.95
2023-04-25T23:49:17.754Z,11.90
2023-04-25T23:51:44.876Z,11.69
2023-04-25T23:54:12.299Z,11.96
2023-04-25T23:56:39.461Z,11.97
2023-04-25T23:59:06.863Z,12.09
